EZY262 EGAC-EGGD
Flight info
| Callsign | EZY262 |
|---|---|
| Flight time | 0h 44m |
| Altitude | 31000 |
| Route | DUFFY L10 RINGA Q39 BABGU DCT ETIGA DCT INKOB Q39 NOMSU UQ4 WAL N862 KARNO/N0406F300 DCT ALHUP DCT LUCSA/N0361F230 N862 WEVBE |
| Aircraft | A320/M-SDE3FGHIRWY/LB1 |
Departure
| Time | 2026-04-26 19:44 |
|---|---|
| Airport | George Best Belfast City Airport (EGAC) |
Arrival
| Time | 2026-04-26 20:29 |
|---|---|
| Airport | Bristol Airport (EGGD) |
| Time | Latitude | Longitude | Altitude | Speed | Heading |
|---|---|---|---|---|---|
| 2026-04-26 19:29 | 54.61496 | -5.87140 | 25 ft | 0 kts | 154° |
| 2026-04-26 19:38 | 54.61499 | -5.87142 | 24 ft | 3 kts | 154° |
| 2026-04-26 19:38 | 54.61523 | -5.87161 | 26 ft | 4 kts | 157° |
| 2026-04-26 19:38 | 54.61548 | -5.87175 | 25 ft | 4 kts | 176° |
| 2026-04-26 19:39 | 54.61574 | -5.87170 | 25 ft | 4 kts | 206° |
| 2026-04-26 19:39 | 54.61585 | -5.87159 | 24 ft | 1 kts | 214° |
| 2026-04-26 19:39 | 54.61586 | -5.87158 | 24 ft | 0 kts | 214° |
| 2026-04-26 19:40 | 54.61577 | -5.87169 | 23 ft | 5 kts | 215° |
| 2026-04-26 19:40 | 54.61546 | -5.87206 | 25 ft | 5 kts | 214° |
| 2026-04-26 19:41 | 54.61517 | -5.87241 | 23 ft | 6 kts | 214° |
| 2026-04-26 19:41 | 54.61480 | -5.87285 | 23 ft | 6 kts | 213° |
| 2026-04-26 19:41 | 54.61446 | -5.87325 | 23 ft | 8 kts | 214° |
| 2026-04-26 19:41 | 54.61399 | -5.87409 | 23 ft | 18 kts | 234° |
| 2026-04-26 19:42 | 54.61259 | -5.87592 | 23 ft | 21 kts | 215° |
| 2026-04-26 19:42 | 54.61138 | -5.87738 | 23 ft | 22 kts | 215° |
| 2026-04-26 19:42 | 54.61087 | -5.87892 | 25 ft | 15 kts | 284° |
| 2026-04-26 19:42 | 54.61139 | -5.88025 | 22 ft | 11 kts | 330° |
| 2026-04-26 19:43 | 54.61185 | -5.87996 | 23 ft | 0 kts | 34° |
| 2026-04-26 19:44 | 54.61256 | -5.87913 | 21 ft | 42 kts | 34° |
| 2026-04-26 19:44 | 54.61721 | -5.87356 | 27 ft | 116 kts | 34° |
| 2026-04-26 19:44 | 54.62522 | -5.86404 | 318 ft | 148 kts | 35° |
| 2026-04-26 19:44 | 54.63372 | -5.85384 | 1121 ft | 150 kts | 34° |
| 2026-04-26 19:45 | 54.64265 | -5.84303 | 1655 ft | 167 kts | 37° |
| 2026-04-26 19:45 | 54.64909 | -5.82504 | 1997 ft | 195 kts | 78° |
| 2026-04-26 19:45 | 54.64718 | -5.80038 | 2362 ft | 225 kts | 115° |
| 2026-04-26 19:45 | 54.63662 | -5.77860 | 2820 ft | 252 kts | 142° |
| 2026-04-26 19:46 | 54.62158 | -5.76120 | 3515 ft | 266 kts | 148° |
| 2026-04-26 19:46 | 54.60543 | -5.74504 | 4433 ft | 271 kts | 154° |
| 2026-04-26 19:46 | 54.58856 | -5.73017 | 5392 ft | 274 kts | 155° |
| 2026-04-26 19:46 | 54.57136 | -5.71569 | 6358 ft | 277 kts | 156° |
| 2026-04-26 19:47 | 54.55392 | -5.70122 | 6954 ft | 279 kts | 156° |
| 2026-04-26 19:47 | 54.54229 | -5.69158 | 7136 ft | 280 kts | 156° |
| 2026-04-26 19:47 | 54.51879 | -5.67202 | 7352 ft | 283 kts | 156° |
| 2026-04-26 19:47 | 54.50110 | -5.65718 | 7503 ft | 282 kts | 156° |
| 2026-04-26 19:48 | 54.48334 | -5.64223 | 8073 ft | 285 kts | 156° |
| 2026-04-26 19:48 | 54.46544 | -5.62719 | 8898 ft | 288 kts | 156° |
| 2026-04-26 19:48 | 54.44834 | -5.61279 | 9424 ft | 264 kts | 156° |
| 2026-04-26 19:48 | 54.43180 | -5.59889 | 9716 ft | 266 kts | 156° |
| 2026-04-26 19:49 | 54.41456 | -5.58375 | 10072 ft | 290 kts | 150° |
| 2026-04-26 19:49 | 54.39794 | -5.56253 | 10516 ft | 311 kts | 138° |
| 2026-04-26 19:49 | 54.38305 | -5.53357 | 10830 ft | 334 kts | 125° |
| 2026-04-26 19:49 | 54.36980 | -5.50011 | 11464 ft | 343 kts | 124° |
| 2026-04-26 19:50 | 54.35626 | -5.46634 | 12288 ft | 345 kts | 125° |
| 2026-04-26 19:50 | 54.34250 | -5.43240 | 13089 ft | 349 kts | 125° |
| 2026-04-26 19:50 | 54.32853 | -5.39815 | 13867 ft | 352 kts | 126° |
| 2026-04-26 19:50 | 54.31437 | -5.36358 | 14558 ft | 356 kts | 126° |
| 2026-04-26 19:51 | 54.30004 | -5.32870 | 15211 ft | 360 kts | 126° |
| 2026-04-26 19:51 | 54.28555 | -5.29335 | 15834 ft | 365 kts | 126° |
| 2026-04-26 19:51 | 54.27072 | -5.25799 | 16464 ft | 369 kts | 128° |
| 2026-04-26 19:51 | 54.25478 | -5.22313 | 17111 ft | 373 kts | 129° |
| 2026-04-26 19:52 | 54.23818 | -5.18874 | 17761 ft | 377 kts | 130° |
| 2026-04-26 19:52 | 54.22133 | -5.15457 | 18389 ft | 381 kts | 131° |
| 2026-04-26 19:52 | 54.20402 | -5.11959 | 18963 ft | 385 kts | 130° |
| 2026-04-26 19:52 | 54.18671 | -5.08447 | 19527 ft | 388 kts | 130° |
| 2026-04-26 19:53 | 54.16939 | -5.04900 | 20098 ft | 391 kts | 130° |
| 2026-04-26 19:53 | 54.15199 | -5.01312 | 20668 ft | 393 kts | 130° |
| 2026-04-26 19:53 | 54.13455 | -4.97703 | 21222 ft | 396 kts | 130° |
| 2026-04-26 19:53 | 54.11703 | -4.94071 | 21787 ft | 398 kts | 130° |
| 2026-04-26 19:54 | 54.09937 | -4.90413 | 22330 ft | 401 kts | 130° |
| 2026-04-26 19:54 | 54.08155 | -4.86734 | 22855 ft | 404 kts | 130° |
| 2026-04-26 19:54 | 54.06356 | -4.83045 | 23374 ft | 407 kts | 130° |
| 2026-04-26 19:54 | 54.04538 | -4.79325 | 23891 ft | 410 kts | 130° |
| 2026-04-26 19:55 | 54.02746 | -4.75541 | 24305 ft | 412 kts | 128° |
| 2026-04-26 19:55 | 54.00994 | -4.71661 | 24729 ft | 415 kts | 128° |
| 2026-04-26 19:55 | 53.99261 | -4.67720 | 25142 ft | 418 kts | 128° |
| 2026-04-26 19:55 | 53.97526 | -4.63735 | 25559 ft | 420 kts | 128° |
| 2026-04-26 19:56 | 53.95781 | -4.59742 | 25965 ft | 422 kts | 128° |
| 2026-04-26 19:56 | 53.94040 | -4.55795 | 26369 ft | 424 kts | 129° |
| 2026-04-26 19:56 | 53.92256 | -4.51791 | 26787 ft | 426 kts | 129° |
| 2026-04-26 19:56 | 53.90454 | -4.47787 | 27185 ft | 428 kts | 129° |
| 2026-04-26 19:57 | 53.88619 | -4.43727 | 27660 ft | 428 kts | 130° |
| 2026-04-26 19:57 | 53.86807 | -4.39716 | 28078 ft | 430 kts | 129° |
| 2026-04-26 19:57 | 53.85036 | -4.35619 | 28472 ft | 432 kts | 128° |
| 2026-04-26 19:57 | 53.83311 | -4.31428 | 28849 ft | 435 kts | 127° |
| 2026-04-26 19:58 | 53.81634 | -4.27234 | 29220 ft | 437 kts | 127° |
| 2026-04-26 19:58 | 53.79936 | -4.22955 | 29591 ft | 439 kts | 127° |
| 2026-04-26 19:58 | 53.78220 | -4.18664 | 29957 ft | 441 kts | 127° |
| 2026-04-26 19:58 | 53.76481 | -4.14374 | 30319 ft | 443 kts | 128° |
| 2026-04-26 19:59 | 53.74721 | -4.10089 | 30632 ft | 445 kts | 128° |
| 2026-04-26 19:59 | 53.72944 | -4.05797 | 30914 ft | 447 kts | 128° |
| 2026-04-26 19:59 | 53.71153 | -4.01491 | 31177 ft | 449 kts | 129° |
| 2026-04-26 19:59 | 53.69358 | -3.97177 | 31284 ft | 445 kts | 129° |
| 2026-04-26 20:00 | 53.67617 | -3.92983 | 31291 ft | 428 kts | 129° |
| 2026-04-26 20:00 | 53.65909 | -3.88966 | 31302 ft | 417 kts | 134° |
| 2026-04-26 20:00 | 53.63827 | -3.85681 | 31302 ft | 405 kts | 150° |
| 2026-04-26 20:00 | 53.61422 | -3.83320 | 31304 ft | 400 kts | 155° |
| 2026-04-26 20:01 | 53.56523 | -3.78865 | 31301 ft | 400 kts | 156° |
| 2026-04-26 20:01 | 53.51622 | -3.74435 | 31300 ft | 400 kts | 156° |
| 2026-04-26 20:02 | 53.46719 | -3.69995 | 31298 ft | 400 kts | 156° |
| 2026-04-26 20:02 | 53.43444 | -3.67035 | 31296 ft | 400 kts | 156° |
| 2026-04-26 20:03 | 53.36894 | -3.61132 | 31292 ft | 399 kts | 156° |
| 2026-04-26 20:03 | 53.32031 | -3.56762 | 31285 ft | 400 kts | 156° |
| 2026-04-26 20:04 | 53.27127 | -3.52368 | 31290 ft | 400 kts | 156° |
| 2026-04-26 20:04 | 53.22221 | -3.47986 | 31290 ft | 400 kts | 156° |
| 2026-04-26 20:05 | 53.17316 | -3.43609 | 31284 ft | 400 kts | 156° |
| 2026-04-26 20:05 | 53.12417 | -3.39247 | 31300 ft | 399 kts | 156° |
| 2026-04-26 20:06 | 53.07529 | -3.34899 | 31304 ft | 398 kts | 157° |
| 2026-04-26 20:06 | 53.02649 | -3.30578 | 31303 ft | 398 kts | 157° |
| 2026-04-26 20:07 | 52.97702 | -3.26562 | 31219 ft | 389 kts | 169° |
| 2026-04-26 20:07 | 52.95101 | -3.25600 | 30935 ft | 378 kts | 173° |
| 2026-04-26 20:07 | 52.92548 | -3.24753 | 30525 ft | 373 kts | 173° |
| 2026-04-26 20:08 | 52.90015 | -3.23928 | 30059 ft | 369 kts | 173° |
| 2026-04-26 20:08 | 52.88353 | -3.23388 | 29783 ft | 366 kts | 173° |
| 2026-04-26 20:08 | 52.85868 | -3.22579 | 29369 ft | 361 kts | 173° |
| 2026-04-26 20:08 | 52.83419 | -3.21776 | 28971 ft | 356 kts | 173° |
| 2026-04-26 20:09 | 52.81009 | -3.20983 | 28591 ft | 352 kts | 173° |
| 2026-04-26 20:09 | 52.78622 | -3.20199 | 28204 ft | 347 kts | 172° |
| 2026-04-26 20:09 | 52.76261 | -3.19424 | 27813 ft | 344 kts | 172° |
| 2026-04-26 20:09 | 52.73928 | -3.18662 | 27430 ft | 340 kts | 173° |
| 2026-04-26 20:10 | 52.71612 | -3.17909 | 27030 ft | 338 kts | 172° |
| 2026-04-26 20:10 | 52.69319 | -3.17162 | 26646 ft | 335 kts | 172° |
| 2026-04-26 20:10 | 52.67039 | -3.16418 | 26258 ft | 333 kts | 172° |
| 2026-04-26 20:10 | 52.64770 | -3.15676 | 25851 ft | 331 kts | 172° |
| 2026-04-26 20:11 | 52.62514 | -3.14940 | 25444 ft | 330 kts | 172° |
| 2026-04-26 20:11 | 52.60266 | -3.14211 | 25032 ft | 329 kts | 172° |
| 2026-04-26 20:11 | 52.58019 | -3.13484 | 24609 ft | 329 kts | 172° |
| 2026-04-26 20:12 | 52.53528 | -3.12028 | 23747 ft | 329 kts | 172° |
| 2026-04-26 20:12 | 52.51284 | -3.11299 | 23288 ft | 328 kts | 172° |
| 2026-04-26 20:12 | 52.49048 | -3.10575 | 22873 ft | 326 kts | 172° |
| 2026-04-26 20:12 | 52.46827 | -3.09857 | 22453 ft | 324 kts | 172° |
| 2026-04-26 20:13 | 52.44621 | -3.09146 | 22061 ft | 323 kts | 172° |
| 2026-04-26 20:13 | 52.42416 | -3.08437 | 21655 ft | 322 kts | 172° |
| 2026-04-26 20:13 | 52.40227 | -3.07734 | 21260 ft | 321 kts | 172° |
| 2026-04-26 20:13 | 52.38039 | -3.07031 | 20856 ft | 320 kts | 172° |
| 2026-04-26 20:14 | 52.35854 | -3.06331 | 20464 ft | 320 kts | 172° |
| 2026-04-26 20:14 | 52.33672 | -3.05630 | 20065 ft | 319 kts | 172° |
| 2026-04-26 20:14 | 52.31491 | -3.04931 | 19671 ft | 319 kts | 172° |
| 2026-04-26 20:14 | 52.29315 | -3.04235 | 19278 ft | 319 kts | 172° |
| 2026-04-26 20:15 | 52.27139 | -3.03537 | 18889 ft | 319 kts | 172° |
| 2026-04-26 20:15 | 52.24991 | -3.02848 | 18490 ft | 319 kts | 172° |
| 2026-04-26 20:15 | 52.22818 | -3.02152 | 18069 ft | 318 kts | 172° |
| 2026-04-26 20:15 | 52.20655 | -3.01462 | 17687 ft | 316 kts | 172° |
| 2026-04-26 20:16 | 52.18472 | -3.00764 | 17300 ft | 315 kts | 172° |
| 2026-04-26 20:16 | 52.16330 | -3.00082 | 16924 ft | 313 kts | 172° |
| 2026-04-26 20:16 | 52.14191 | -2.99400 | 16552 ft | 312 kts | 172° |
| 2026-04-26 20:16 | 52.12054 | -2.98993 | 16197 ft | 307 kts | 184° |
| 2026-04-26 20:17 | 52.09929 | -2.99161 | 16122 ft | 307 kts | 186° |
| 2026-04-26 20:17 | 52.07795 | -2.99343 | 16015 ft | 307 kts | 186° |
| 2026-04-26 20:17 | 52.05663 | -2.99515 | 15893 ft | 307 kts | 186° |
| 2026-04-26 20:17 | 52.04253 | -2.99625 | 15813 ft | 306 kts | 186° |
| 2026-04-26 20:18 | 52.01411 | -2.99847 | 15655 ft | 306 kts | 186° |
| 2026-04-26 20:18 | 51.99287 | -3.00014 | 15531 ft | 305 kts | 186° |
| 2026-04-26 20:18 | 51.97164 | -3.00177 | 15413 ft | 305 kts | 186° |
| 2026-04-26 20:18 | 51.95067 | -3.00028 | 15295 ft | 308 kts | 174° |
| 2026-04-26 20:19 | 51.92972 | -2.99109 | 14804 ft | 318 kts | 163° |
| 2026-04-26 20:19 | 51.90881 | -2.97850 | 14270 ft | 323 kts | 163° |
| 2026-04-26 20:19 | 51.88767 | -2.96571 | 13711 ft | 326 kts | 163° |
| 2026-04-26 20:19 | 51.86633 | -2.95279 | 13194 ft | 327 kts | 163° |
| 2026-04-26 20:20 | 51.84485 | -2.93980 | 12746 ft | 326 kts | 162° |
| 2026-04-26 20:20 | 51.82398 | -2.92723 | 12290 ft | 320 kts | 162° |
| 2026-04-26 20:20 | 51.80318 | -2.91475 | 11695 ft | 318 kts | 162° |
| 2026-04-26 20:20 | 51.78268 | -2.90251 | 11203 ft | 313 kts | 162° |
| 2026-04-26 20:21 | 51.76220 | -2.89032 | 10618 ft | 311 kts | 162° |
| 2026-04-26 20:21 | 51.74204 | -2.87834 | 10155 ft | 306 kts | 161° |
| 2026-04-26 20:21 | 51.72244 | -2.86742 | 9893 ft | 292 kts | 168° |
| 2026-04-26 20:21 | 51.70252 | -2.86355 | 9370 ft | 286 kts | 182° |
| 2026-04-26 20:22 | 51.68272 | -2.86732 | 8714 ft | 281 kts | 190° |
| 2026-04-26 20:22 | 51.66381 | -2.87233 | 8223 ft | 278 kts | 190° |
| 2026-04-26 20:22 | 51.64448 | -2.87736 | 7761 ft | 278 kts | 189° |
| 2026-04-26 20:22 | 51.62522 | -2.88228 | 7303 ft | 280 kts | 189° |
| 2026-04-26 20:23 | 51.60614 | -2.88710 | 6803 ft | 283 kts | 189° |
| 2026-04-26 20:23 | 51.58675 | -2.89198 | 6418 ft | 280 kts | 189° |
| 2026-04-26 20:23 | 51.56761 | -2.89684 | 6033 ft | 277 kts | 189° |
| 2026-04-26 20:23 | 51.54868 | -2.90165 | 5651 ft | 274 kts | 189° |
| 2026-04-26 20:24 | 51.52994 | -2.90639 | 5283 ft | 271 kts | 189° |
| 2026-04-26 20:24 | 51.51148 | -2.91107 | 4969 ft | 266 kts | 188° |
| 2026-04-26 20:24 | 51.49342 | -2.91565 | 4657 ft | 260 kts | 188° |
| 2026-04-26 20:24 | 51.47572 | -2.92012 | 4345 ft | 255 kts | 188° |
| 2026-04-26 20:25 | 51.45833 | -2.92451 | 4043 ft | 250 kts | 188° |
| 2026-04-26 20:25 | 51.44678 | -2.92743 | 3844 ft | 247 kts | 187° |
| 2026-04-26 20:25 | 51.42445 | -2.93104 | 3439 ft | 240 kts | 174° |
| 2026-04-26 20:25 | 51.40843 | -2.92528 | 2986 ft | 237 kts | 155° |
| 2026-04-26 20:26 | 51.39482 | -2.91180 | 2747 ft | 226 kts | 137° |
| 2026-04-26 20:26 | 51.38495 | -2.89319 | 2552 ft | 214 kts | 120° |
| 2026-04-26 20:26 | 51.37926 | -2.87218 | 2355 ft | 199 kts | 104° |
| 2026-04-26 20:26 | 51.37752 | -2.85107 | 2111 ft | 186 kts | 89° |
| 2026-04-26 20:27 | 51.37825 | -2.83125 | 1901 ft | 170 kts | 86° |
| 2026-04-26 20:27 | 51.37896 | -2.81324 | 1655 ft | 154 kts | 87° |
| 2026-04-26 20:27 | 51.37961 | -2.79685 | 1451 ft | 143 kts | 87° |
| 2026-04-26 20:27 | 51.38023 | -2.78124 | 1260 ft | 139 kts | 87° |
| 2026-04-26 20:28 | 51.38083 | -2.76585 | 1071 ft | 138 kts | 87° |
| 2026-04-26 20:28 | 51.38144 | -2.75057 | 870 ft | 137 kts | 87° |
| 2026-04-26 20:28 | 51.38203 | -2.73538 | 676 ft | 136 kts | 87° |
| 2026-04-26 20:28 | 51.38260 | -2.72121 | 616 ft | 110 kts | 86° |
| 2026-04-26 20:29 | 51.38296 | -2.71177 | 620 ft | 61 kts | 86° |
| 2026-04-26 20:29 | 51.38310 | -2.70829 | 616 ft | 13 kts | 81° |
| 2026-04-26 20:29 | 51.38372 | -2.70744 | 620 ft | 11 kts | 20° |
| 2026-04-26 20:29 | 51.38431 | -2.70710 | 614 ft | 7 kts | 19° |
| 2026-04-26 20:30 | 51.38460 | -2.70725 | 612 ft | 6 kts | 313° |
| 2026-04-26 20:30 | 51.38467 | -2.70838 | 620 ft | 12 kts | 266° |
| 2026-04-26 20:30 | 51.38462 | -2.70966 | 613 ft | 11 kts | 266° |
| 2026-04-26 20:30 | 51.38461 | -2.71068 | 613 ft | 5 kts | 291° |
| 2026-04-26 20:31 | 51.38492 | -2.71076 | 613 ft | 5 kts | 356° |
| 2026-04-26 20:31 | 51.38526 | -2.71080 | 613 ft | 5 kts | 356° |
| 2026-04-26 20:31 | 51.38542 | -2.71081 | 623 ft | 0 kts | 356° |